sensor_id;sensor_type;location;lat;lon;timestamp;temperature;humidity
23783;DHT22;12071;50.850;4.446;2023-06-10T00:01:24;22.70;1.00
23783;DHT22;12071;50.850;4.446;2023-06-10T00:03:51;22.60;1.00
23783;DHT22;12071;50.850;4.446;2023-06-10T00:06:17;22.70;1.00
23783;DHT22;12071;50.850;4.446;2023-06-10T00:08:43;22.60;1.00
23783;DHT22;12071;50.850;4.446;2023-06-10T00:11:09;22.60;1.00
23783;DHT22;12071;50.850;4.446;2023-06-10T00:13:35;22.60;1.00
23783;DHT22;12071;50.850;4.446;2023-06-10T00:16:01;22.60;1.00
23783;DHT22;12071;50.850;4.446;2023-06-10T00:18:26;22.50;1.00
23783;DHT22;12071;50.850;4.446;2023-06-10T00:20:52;22.40;1.00
23783;DHT22;12071;50.850;4.446;2023-06-10T00:23:20;22.30;1.00
23783;DHT22;12071;50.850;4.446;2023-06-10T00:25:46;22.30;22.90
23783;DHT22;12071;50.850;4.446;2023-06-10T00:28:12;22.20;27.70
23783;DHT22;12071;50.850;4.446;2023-06-10T00:30:38;22.20;76.60
23783;DHT22;12071;50.850;4.446;2023-06-10T00:33:04;22.20;64.00
23783;DHT22;12071;50.850;4.446;2023-06-10T00:35:30;22.10;98.40
23783;DHT22;12071;50.850;4.446;2023-06-10T00:37:55;22.00;99.90
23783;DHT22;12071;50.850;4.446;2023-06-10T00:40:21;21.90;99.90
23783;DHT22;12071;50.850;4.446;2023-06-10T00:42:46;21.90;99.90
23783;DHT22;12071;50.850;4.446;2023-06-10T00:45:12;21.80;99.90
23783;DHT22;12071;50.850;4.446;2023-06-10T00:47:38;21.90;99.90
23783;DHT22;12071;50.850;4.446;2023-06-10T00:50:05;21.90;99.90
23783;DHT22;12071;50.850;4.446;2023-06-10T00:52:31;21.90;99.90
23783;DHT22;12071;50.850;4.446;2023-06-10T00:54:57;21.90;99.90
23783;DHT22;12071;50.850;4.446;2023-06-10T00:57:24;21.80;99.90
23783;DHT22;12071;50.850;4.446;2023-06-10T00:59:50;21.70;99.90
23783;DHT22;12071;50.850;4.446;2023-06-10T01:02:17;21.70;99.90
23783;DHT22;12071;50.850;4.446;2023-06-10T01:04:43;21.60;99.90
23783;DHT22;12071;50.850;4.446;2023-06-10T01:07:28;21.50;99.90
23783;DHT22;12071;50.850;4.446;2023-06-10T01:10:16;21.40;99.90
23783;DHT22;12071;50.850;4.446;2023-06-10T01:13:05;21.50;99.90
23783;DHT22;12071;50.850;4.446;2023-06-10T01:15:33;21.70;99.90
23783;DHT22;12071;50.850;4.446;2023-06-10T01:18:06;21.70;99.90
23783;DHT22;12071;50.850;4.446;2023-06-10T01:20:41;21.60;99.90
23783;DHT22;12071;50.850;4.446;2023-06-10T01:23:09;21.50;99.90
23783;DHT22;12071;50.850;4.446;2023-06-10T01:25:38;21.40;99.90
23783;DHT22;12071;50.850;4.446;2023-06-10T01:28:21;21.30;99.90
23783;DHT22;12071;50.850;4.446;2023-06-10T01:33:42;21.30;99.90
23783;DHT22;12071;50.850;4.446;2023-06-10T01:36:08;21.20;99.90
23783;DHT22;12071;50.850;4.446;2023-06-10T01:38:40;21.10;99.90
23783;DHT22;12071;50.850;4.446;2023-06-10T01:41:07;21.30;99.90
23783;DHT22;12071;50.850;4.446;2023-06-10T01:43:34;21.20;99.90
23783;DHT22;12071;50.850;4.446;2023-06-10T01:46:00;21.20;99.90
23783;DHT22;12071;50.850;4.446;2023-06-10T01:48:26;21.20;99.90
23783;DHT22;12071;50.850;4.446;2023-06-10T01:50:52;21.20;99.90
23783;DHT22;12071;50.850;4.446;2023-06-10T01:53:17;21.10;99.90
23783;DHT22;12071;50.850;4.446;2023-06-10T01:55:43;21.10;1.00
23783;DHT22;12071;50.850;4.446;2023-06-10T01:58:08;21.10;1.00
23783;DHT22;12071;50.850;4.446;2023-06-10T02:00:34;20.90;5.90
23783;DHT22;12071;50.850;4.446;2023-06-10T02:02:59;21.00;99.90
23783;DHT22;12071;50.850;4.446;2023-06-10T02:05:25;21.00;99.90
23783;DHT22;12071;50.850;4.446;2023-06-10T02:07:51;21.10;99.90
23783;DHT22;12071;50.850;4.446;2023-06-10T02:10:16;20.90;99.90
23783;DHT22;12071;50.850;4.446;2023-06-10T02:12:42;20.80;99.90
23783;DHT22;12071;50.850;4.446;2023-06-10T02:15:07;20.80;99.90
23783;DHT22;12071;50.850;4.446;2023-06-10T02:17:33;20.70;1.00
23783;DHT22;12071;50.850;4.446;2023-06-10T02:19:59;20.80;1.00
23783;DHT22;12071;50.850;4.446;2023-06-10T02:22:25;20.70;1.00
23783;DHT22;12071;50.850;4.446;2023-06-10T02:24:51;20.70;1.00
23783;DHT22;12071;50.850;4.446;2023-06-10T02:27:17;20.70;30.90
23783;DHT22;12071;50.850;4.446;2023-06-10T02:29:43;20.70;1.00
23783;DHT22;12071;50.850;4.446;2023-06-10T02:32:09;20.60;1.00
23783;DHT22;12071;50.850;4.446;2023-06-10T02:34:35;20.50;1.00
23783;DHT22;12071;50.850;4.446;2023-06-10T02:37:02;20.40;1.00
23783;DHT22;12071;50.850;4.446;2023-06-10T02:39:28;20.30;25.40
23783;DHT22;12071;50.850;4.446;2023-06-10T02:41:54;20.20;99.90
23783;DHT22;12071;50.850;4.446;2023-06-10T02:44:19;20.20;99.90
23783;DHT22;12071;50.850;4.446;2023-06-10T02:46:45;20.30;99.90
23783;DHT22;12071;50.850;4.446;2023-06-10T02:49:12;20.30;99.90
23783;DHT22;12071;50.850;4.446;2023-06-10T02:51:37;20.40;99.90
23783;DHT22;12071;50.850;4.446;2023-06-10T02:54:03;20.50;99.90
23783;DHT22;12071;50.850;4.446;2023-06-10T02:56:29;20.40;99.90
23783;DHT22;12071;50.850;4.446;2023-06-10T02:58:54;20.20;99.90
23783;DHT22;12071;50.850;4.446;2023-06-10T03:01:21;20.10;1.00
23783;DHT22;12071;50.850;4.446;2023-06-10T03:03:47;20.00;89.70
23783;DHT22;12071;50.850;4.446;2023-06-10T03:06:13;20.00;99.90
23783;DHT22;12071;50.850;4.446;2023-06-10T03:08:39;19.90;99.90
23783;DHT22;12071;50.850;4.446;2023-06-10T03:11:08;19.90;1.00
23783;DHT22;12071;50.850;4.446;2023-06-10T03:13:34;19.80;1.00
23783;DHT22;12071;50.850;4.446;2023-06-10T03:15:59;19.90;99.90
23783;DHT22;12071;50.850;4.446;2023-06-10T03:18:26;19.80;99.90
23783;DHT22;12071;50.850;4.446;2023-06-10T03:20:53;19.90;1.00
23783;DHT22;12071;50.850;4.446;2023-06-10T03:23:22;19.70;99.90
23783;DHT22;12071;50.850;4.446;2023-06-10T03:25:48;19.60;1.00
23783;DHT22;12071;50.850;4.446;2023-06-10T03:28:14;19.60;1.00
23783;DHT22;12071;50.850;4.446;2023-06-10T03:30:40;19.40;99.90
23783;DHT22;12071;50.850;4.446;2023-06-10T03:33:05;19.40;1.00
23783;DHT22;12071;50.850;4.446;2023-06-10T03:35:31;19.30;99.90
23783;DHT22;12071;50.850;4.446;2023-06-10T03:37:58;19.20;99.90
23783;DHT22;12071;50.850;4.446;2023-06-10T03:40:24;19.40;99.90
23783;DHT22;12071;50.850;4.446;2023-06-10T03:42:50;19.50;99.90
23783;DHT22;12071;50.850;4.446;2023-06-10T03:45:15;19.40;1.00
23783;DHT22;12071;50.850;4.446;2023-06-10T03:47:41;19.30;99.90
23783;DHT22;12071;50.850;4.446;2023-06-10T03:50:09;19.10;99.90
23783;DHT22;12071;50.850;4.446;2023-06-10T03:52:38;19.20;1.00
23783;DHT22;12071;50.850;4.446;2023-06-10T03:55:05;19.30;1.00
23783;DHT22;12071;50.850;4.446;2023-06-10T03:57:31;19.20;1.00
23783;DHT22;12071;50.850;4.446;2023-06-10T03:59:56;19.40;1.00
23783;DHT22;12071;50.850;4.446;2023-06-10T04:02:22;19.30;99.90
23783;DHT22;12071;50.850;4.446;2023-06-10T04:04:48;19.30;99.90
23783;DHT22;12071;50.850;4.446;2023-06-10T04:07:14;19.40;99.90
23783;DHT22;12071;50.850;4.446;2023-06-10T04:09:40;19.50;99.90
23783;DHT22;12071;50.850;4.446;2023-06-10T04:12:06;19.50;99.90
23783;DHT22;12071;50.850;4.446;2023-06-10T04:14:34;19.40;99.90
23783;DHT22;12071;50.850;4.446;2023-06-10T04:17:04;19.20;99.90
23783;DHT22;12071;50.850;4.446;2023-06-10T04:19:32;19.00;1.00
23783;DHT22;12071;50.850;4.446;2023-06-10T04:21:58;19.10;99.90
23783;DHT22;12071;50.850;4.446;2023-06-10T04:24:23;19.20;99.90
23783;DHT22;12071;50.850;4.446;2023-06-10T04:26:49;19.30;1.00
23783;DHT22;12071;50.850;4.446;2023-06-10T04:29:15;19.00;99.90
23783;DHT22;12071;50.850;4.446;2023-06-10T04:31:40;18.90;99.90
23783;DHT22;12071;50.850;4.446;2023-06-10T04:34:06;19.10;99.90
23783;DHT22;12071;50.850;4.446;2023-06-10T04:36:33;19.30;99.90
23783;DHT22;12071;50.850;4.446;2023-06-10T04:38:58;19.20;99.90
23783;DHT22;12071;50.850;4.446;2023-06-10T04:41:24;19.30;99.90
23783;DHT22;12071;50.850;4.446;2023-06-10T04:43:51;19.20;99.90
23783;DHT22;12071;50.850;4.446;2023-06-10T04:46:17;19.20;99.90
23783;DHT22;12071;50.850;4.446;2023-06-10T04:48:45;19.10;99.90
23783;DHT22;12071;50.850;4.446;2023-06-10T04:51:12;19.30;99.90
23783;DHT22;12071;50.850;4.446;2023-06-10T04:53:39;19.50;99.90
23783;DHT22;12071;50.850;4.446;2023-06-10T04:56:07;19.40;99.90
23783;DHT22;12071;50.850;4.446;2023-06-10T04:58:33;19.30;99.90
23783;DHT22;12071;50.850;4.446;2023-06-10T05:01:02;19.50;99.90
23783;DHT22;12071;50.850;4.446;2023-06-10T05:03:28;19.40;99.90
23783;DHT22;12071;50.850;4.446;2023-06-10T05:05:54;19.50;99.90
23783;DHT22;12071;50.850;4.446;2023-06-10T05:08:20;19.70;99.90
23783;DHT22;12071;50.850;4.446;2023-06-10T05:10:45;19.60;99.90
23783;DHT22;12071;50.850;4.446;2023-06-10T05:13:11;19.80;99.90
23783;DHT22;12071;50.850;4.446;2023-06-10T05:15:37;19.80;99.90
23783;DHT22;12071;50.850;4.446;2023-06-10T05:18:02;19.80;99.90
23783;DHT22;12071;50.850;4.446;2023-06-10T05:20:28;19.90;99.90
23783;DHT22;12071;50.850;4.446;2023-06-10T05:22:54;20.00;1.00
23783;DHT22;12071;50.850;4.446;2023-06-10T05:25:21;20.00;99.90
23783;DHT22;12071;50.850;4.446;2023-06-10T05:27:46;20.20;18.20
23783;DHT22;12071;50.850;4.446;2023-06-10T05:30:12;20.20;99.90
23783;DHT22;12071;50.850;4.446;2023-06-10T05:32:38;20.10;99.90
23783;DHT22;12071;50.850;4.446;2023-06-10T05:35:04;20.20;99.90
23783;DHT22;12071;50.850;4.446;2023-06-10T05:37:30;20.20;99.90
23783;DHT22;12071;50.850;4.446;2023-06-10T05:39:55;20.40;99.90
23783;DHT22;12071;50.850;4.446;2023-06-10T05:42:21;20.60;1.00
23783;DHT22;12071;50.850;4.446;2023-06-10T05:44:47;20.60;99.90
23783;DHT22;12071;50.850;4.446;2023-06-10T05:47:12;20.80;99.90
23783;DHT22;12071;50.850;4.446;2023-06-10T05:49:38;20.80;3.10
23783;DHT22;12071;50.850;4.446;2023-06-10T05:52:04;21.20;99.90
23783;DHT22;12071;50.850;4.446;2023-06-10T05:54:30;21.10;99.90
23783;DHT22;12071;50.850;4.446;2023-06-10T05:56:55;21.00;5.90
23783;DHT22;12071;50.850;4.446;2023-06-10T05:59:21;21.00;1.00
23783;DHT22;12071;50.850;4.446;2023-06-10T06:01:48;21.00;57.20
23783;DHT22;12071;50.850;4.446;2023-06-10T06:04:16;21.00;1.00
23783;DHT22;12071;50.850;4.446;2023-06-10T06:06:41;21.00;99.90
23783;DHT22;12071;50.850;4.446;2023-06-10T06:09:07;21.10;99.90
23783;DHT22;12071;50.850;4.446;2023-06-10T06:11:34;21.50;1.00
23783;DHT22;12071;50.850;4.446;2023-06-10T06:14:00;21.40;99.90
23783;DHT22;12071;50.850;4.446;2023-06-10T06:16:26;21.50;99.90
23783;DHT22;12071;50.850;4.446;2023-06-10T06:18:51;21.50;99.90
23783;DHT22;12071;50.850;4.446;2023-06-10T06:21:17;21.80;99.90
23783;DHT22;12071;50.850;4.446;2023-06-10T06:23:43;22.00;99.90
23783;DHT22;12071;50.850;4.446;2023-06-10T06:26:08;21.80;99.90
23783;DHT22;12071;50.850;4.446;2023-06-10T06:28:34;22.10;99.90
23783;DHT22;12071;50.850;4.446;2023-06-10T06:31:00;22.10;1.00
23783;DHT22;12071;50.850;4.446;2023-06-10T06:33:25;22.10;31.70
23783;DHT22;12071;50.850;4.446;2023-06-10T06:35:55;22.20;1.00
23783;DHT22;12071;50.850;4.446;2023-06-10T06:38:20;22.20;99.90
23783;DHT22;12071;50.850;4.446;2023-06-10T06:40:46;22.20;1.00
23783;DHT22;12071;50.850;4.446;2023-06-10T06:43:12;22.20;1.00
23783;DHT22;12071;50.850;4.446;2023-06-10T06:45:37;22.20;1.00
23783;DHT22;12071;50.850;4.446;2023-06-10T06:48:04;22.20;1.00
23783;DHT22;12071;50.850;4.446;2023-06-10T06:50:30;22.30;6.70
23783;DHT22;12071;50.850;4.446;2023-06-10T06:52:56;22.30;1.00
23783;DHT22;12071;50.850;4.446;2023-06-10T06:55:22;22.30;1.20
23783;DHT22;12071;50.850;4.446;2023-06-10T06:57:48;22.40;99.90
23783;DHT22;12071;50.850;4.446;2023-06-10T07:00:14;22.50;1.00
23783;DHT22;12071;50.850;4.446;2023-06-10T07:02:40;22.50;1.00
23783;DHT22;12071;50.850;4.446;2023-06-10T07:05:06;22.80;1.00
23783;DHT22;12071;50.850;4.446;2023-06-10T07:07:32;22.80;99.90
23783;DHT22;12071;50.850;4.446;2023-06-10T07:09:58;22.90;99.90
23783;DHT22;12071;50.850;4.446;2023-06-10T07:12:24;22.90;99.90
23783;DHT22;12071;50.850;4.446;2023-06-10T07:14:50;23.00;99.90
23783;DHT22;12071;50.850;4.446;2023-06-10T07:17:16;23.10;99.90
23783;DHT22;12071;50.850;4.446;2023-06-10T07:19:43;23.10;99.90
23783;DHT22;12071;50.850;4.446;2023-06-10T07:22:10;23.10;1.00
23783;DHT22;12071;50.850;4.446;2023-06-10T07:24:36;23.20;1.00
23783;DHT22;12071;50.850;4.446;2023-06-10T07:27:03;23.50;1.00
23783;DHT22;12071;50.850;4.446;2023-06-10T07:29:29;23.50;99.90
23783;DHT22;12071;50.850;4.446;2023-06-10T07:31:54;23.60;99.90
23783;DHT22;12071;50.850;4.446;2023-06-10T07:34:20;23.90;99.90
23783;DHT22;12071;50.850;4.446;2023-06-10T07:36:46;23.90;99.90
23783;DHT22;12071;50.850;4.446;2023-06-10T07:39:12;24.10;99.90
23783;DHT22;12071;50.850;4.446;2023-06-10T07:41:37;23.90;99.90
23783;DHT22;12071;50.850;4.446;2023-06-10T07:44:03;24.00;43.70
23783;DHT22;12071;50.850;4.446;2023-06-10T07:46:29;24.10;97.60
23783;DHT22;12071;50.850;4.446;2023-06-10T07:48:55;24.20;1.00
23783;DHT22;12071;50.850;4.446;2023-06-10T07:51:21;24.30;1.00
23783;DHT22;12071;50.850;4.446;2023-06-10T07:53:47;24.30;19.90
23783;DHT22;12071;50.850;4.446;2023-06-10T07:56:13;24.30;1.00
23783;DHT22;12071;50.850;4.446;2023-06-10T07:58:38;24.50;1.00
23783;DHT22;12071;50.850;4.446;2023-06-10T08:01:04;24.70;1.00
23783;DHT22;12071;50.850;4.446;2023-06-10T08:03:30;24.60;99.90
23783;DHT22;12071;50.850;4.446;2023-06-10T08:05:56;24.60;99.90
23783;DHT22;12071;50.850;4.446;2023-06-10T08:08:24;24.60;99.90
23783;DHT22;12071;50.850;4.446;2023-06-10T08:10:50;24.80;99.90
23783;DHT22;12071;50.850;4.446;2023-06-10T08:13:15;25.10;99.90
23783;DHT22;12071;50.850;4.446;2023-06-10T08:15:41;25.20;1.00
23783;DHT22;12071;50.850;4.446;2023-06-10T08:18:07;25.30;1.00
23783;DHT22;12071;50.850;4.446;2023-06-10T08:20:32;25.40;1.00
23783;DHT22;12071;50.850;4.446;2023-06-10T08:22:58;25.60;99.90
23783;DHT22;12071;50.850;4.446;2023-06-10T08:25:23;25.50;99.90
23783;DHT22;12071;50.850;4.446;2023-06-10T08:27:49;25.60;99.90
23783;DHT22;12071;50.850;4.446;2023-06-10T08:30:17;25.70;99.90
23783;DHT22;12071;50.850;4.446;2023-06-10T08:32:43;25.90;99.90
23783;DHT22;12071;50.850;4.446;2023-06-10T08:35:09;25.80;99.90
23783;DHT22;12071;50.850;4.446;2023-06-10T08:37:35;26.00;99.90
23783;DHT22;12071;50.850;4.446;2023-06-10T08:40:00;25.90;99.90
23783;DHT22;12071;50.850;4.446;2023-06-10T08:42:43;26.10;99.90
23783;DHT22;12071;50.850;4.446;2023-06-10T08:45:15;26.30;99.90
23783;DHT22;12071;50.850;4.446;2023-06-10T08:47:45;26.50;99.90
23783;DHT22;12071;50.850;4.446;2023-06-10T08:50:11;26.70;99.90
23783;DHT22;12071;50.850;4.446;2023-06-10T08:52:42;26.50;99.90
23783;DHT22;12071;50.850;4.446;2023-06-10T08:55:19;26.60;99.90
23783;DHT22;12071;50.850;4.446;2023-06-10T08:57:48;26.60;99.90
23783;DHT22;12071;50.850;4.446;2023-06-10T09:00:16;26.60;99.90
23783;DHT22;12071;50.850;4.446;2023-06-10T09:02:43;26.70;99.90
23783;DHT22;12071;50.850;4.446;2023-06-10T09:05:09;26.80;99.90
23783;DHT22;12071;50.850;4.446;2023-06-10T09:07:35;27.00;96.30
23783;DHT22;12071;50.850;4.446;2023-06-10T09:10:02;27.20;88.90
23783;DHT22;12071;50.850;4.446;2023-06-10T09:12:29;27.30;95.20
23783;DHT22;12071;50.850;4.446;2023-06-10T09:14:55;27.40;99.90
23783;DHT22;12071;50.850;4.446;2023-06-10T09:17:22;27.70;84.00
23783;DHT22;12071;50.850;4.446;2023-06-10T09:19:49;27.50;24.40
23783;DHT22;12071;50.850;4.446;2023-06-10T09:22:17;27.50;51.10
23783;DHT22;12071;50.850;4.446;2023-06-10T09:24:43;27.50;37.40
23783;DHT22;12071;50.850;4.446;2023-06-10T09:27:09;27.50;20.30
23783;DHT22;12071;50.850;4.446;2023-06-10T09:29:51;27.80;5.90
23783;DHT22;12071;50.850;4.446;2023-06-10T09:32:18;28.10;1.00
23783;DHT22;12071;50.850;4.446;2023-06-10T09:34:44;28.20;6.70
23783;DHT22;12071;50.850;4.446;2023-06-10T09:37:10;28.30;1.00
23783;DHT22;12071;50.850;4.446;2023-06-10T09:39:37;28.00;1.00
23783;DHT22;12071;50.850;4.446;2023-06-10T09:42:16;28.10;1.00
23783;DHT22;12071;50.850;4.446;2023-06-10T09:44:49;28.50;1.00
23783;DHT22;12071;50.850;4.446;2023-06-10T09:47:23;28.60;1.00
23783;DHT22;12071;50.850;4.446;2023-06-10T09:49:49;28.90;1.00
23783;DHT22;12071;50.850;4.446;2023-06-10T09:52:22;28.90;1.00
23783;DHT22;12071;50.850;4.446;2023-06-10T09:54:48;28.60;1.00
23783;DHT22;12071;50.850;4.446;2023-06-10T09:57:14;28.60;1.00
23783;DHT22;12071;50.850;4.446;2023-06-10T09:59:42;28.70;1.00
23783;DHT22;12071;50.850;4.446;2023-06-10T10:02:14;28.80;1.00
23783;DHT22;12071;50.850;4.446;2023-06-10T10:04:40;28.80;1.00
23783;DHT22;12071;50.850;4.446;2023-06-10T10:07:06;29.10;1.00
23783;DHT22;12071;50.850;4.446;2023-06-10T10:09:33;29.20;1.00
23783;DHT22;12071;50.850;4.446;2023-06-10T10:11:59;28.90;1.00
23783;DHT22;12071;50.850;4.446;2023-06-10T10:14:28;29.00;1.00
23783;DHT22;12071;50.850;4.446;2023-06-10T10:16:58;29.20;1.00
23783;DHT22;12071;50.850;4.446;2023-06-10T10:19:31;29.60;1.00
23783;DHT22;12071;50.850;4.446;2023-06-10T10:22:10;29.60;1.00
23783;DHT22;12071;50.850;4.446;2023-06-10T10:24:50;29.50;1.00
23783;DHT22;12071;50.850;4.446;2023-06-10T10:27:26;29.50;99.90
23783;DHT22;12071;50.850;4.446;2023-06-10T10:29:54;29.60;99.90
23783;DHT22;12071;50.850;4.446;2023-06-10T10:33:00;29.60;99.90
23783;DHT22;12071;50.850;4.446;2023-06-10T10:35:32;29.80;99.90
23783;DHT22;12071;50.850;4.446;2023-06-10T10:37:58;29.90;99.90
23783;DHT22;12071;50.850;4.446;2023-06-10T10:40:25;29.80;99.90
23783;DHT22;12071;50.850;4.446;2023-06-10T10:42:51;30.00;99.90
23783;DHT22;12071;50.850;4.446;2023-06-10T10:45:18;29.70;99.90
23783;DHT22;12071;50.850;4.446;2023-06-10T10:47:45;29.60;99.90
23783;DHT22;12071;50.850;4.446;2023-06-10T10:50:18;29.70;99.90
23783;DHT22;12071;50.850;4.446;2023-06-10T10:53:00;30.00;99.90
23783;DHT22;12071;50.850;4.446;2023-06-10T10:55:26;30.50;99.90
23783;DHT22;12071;50.850;4.446;2023-06-10T11:00:32;30.10;99.90
23783;DHT22;12071;50.850;4.446;2023-06-10T11:03:00;30.00;99.90
23783;DHT22;12071;50.850;4.446;2023-06-10T11:05:38;30.10;99.90
23783;DHT22;12071;50.850;4.446;2023-06-10T11:08:04;30.00;99.90
23783;DHT22;12071;50.850;4.446;2023-06-10T11:10:35;29.80;99.90
23783;DHT22;12071;50.850;4.446;2023-06-10T11:13:22;30.10;99.90
23783;DHT22;12071;50.850;4.446;2023-06-10T11:15:49;30.30;99.90
23783;DHT22;12071;50.850;4.446;2023-06-10T11:18:26;30.40;99.90
23783;DHT22;12071;50.850;4.446;2023-06-10T11:20:54;30.50;99.90
23783;DHT22;12071;50.850;4.446;2023-06-10T11:29:05;30.60;99.90
23783;DHT22;12071;50.850;4.446;2023-06-10T11:31:44;30.70;99.90
23783;DHT22;12071;50.850;4.446;2023-06-10T11:34:11;31.10;99.90
23783;DHT22;12071;50.850;4.446;2023-06-10T11:36:41;31.00;99.90
23783;DHT22;12071;50.850;4.446;2023-06-10T11:39:08;31.20;99.90
23783;DHT22;12071;50.850;4.446;2023-06-10T11:41:35;31.50;99.90
23783;DHT22;12071;50.850;4.446;2023-06-10T11:44:08;31.40;99.90
23783;DHT22;12071;50.850;4.446;2023-06-10T11:46:34;30.90;99.90
23783;DHT22;12071;50.850;4.446;2023-06-10T11:49:01;30.80;99.90
23783;DHT22;12071;50.850;4.446;2023-06-10T11:51:41;31.10;99.90
23783;DHT22;12071;50.850;4.446;2023-06-10T11:54:14;31.50;99.90
23783;DHT22;12071;50.850;4.446;2023-06-10T11:56:40;31.60;99.90
23783;DHT22;12071;50.850;4.446;2023-06-10T11:59:06;31.70;99.90
23783;DHT22;12071;50.850;4.446;2023-06-10T12:01:36;31.60;99.90
23783;DHT22;12071;50.850;4.446;2023-06-10T12:04:07;31.80;99.90
23783;DHT22;12071;50.850;4.446;2023-06-10T12:11:45;31.70;99.90
23783;DHT22;12071;50.850;4.446;2023-06-10T12:14:11;31.80;99.90
23783;DHT22;12071;50.850;4.446;2023-06-10T12:16:36;31.80;99.90
23783;DHT22;12071;50.850;4.446;2023-06-10T12:19:03;31.90;99.90
23783;DHT22;12071;50.850;4.446;2023-06-10T12:21:30;31.80;99.90
23783;DHT22;12071;50.850;4.446;2023-06-10T12:24:03;31.90;99.90
23783;DHT22;12071;50.850;4.446;2023-06-10T12:26:40;32.10;99.90
23783;DHT22;12071;50.850;4.446;2023-06-10T12:29:22;32.10;99.90
23783;DHT22;12071;50.850;4.446;2023-06-10T12:32:02;32.30;99.90
23783;DHT22;12071;50.850;4.446;2023-06-10T12:34:38;32.50;99.90
23783;DHT22;12071;50.850;4.446;2023-06-10T12:37:11;32.70;99.90
23783;DHT22;12071;50.850;4.446;2023-06-10T12:39:40;32.50;99.90
23783;DHT22;12071;50.850;4.446;2023-06-10T12:42:06;32.60;99.90
23783;DHT22;12071;50.850;4.446;2023-06-10T12:44:41;32.40;99.90
23783;DHT22;12071;50.850;4.446;2023-06-10T12:47:10;32.80;99.90
23783;DHT22;12071;50.850;4.446;2023-06-10T12:49:38;32.90;99.90
23783;DHT22;12071;50.850;4.446;2023-06-10T12:52:05;32.70;99.90
23783;DHT22;12071;50.850;4.446;2023-06-10T12:54:30;32.70;99.90
23783;DHT22;12071;50.850;4.446;2023-06-10T12:56:56;33.00;99.90
23783;DHT22;12071;50.850;4.446;2023-06-10T12:59:22;32.90;99.90
23783;DHT22;12071;50.850;4.446;2023-06-10T13:01:52;32.90;99.90
23783;DHT22;12071;50.850;4.446;2023-06-10T13:04:18;32.70;99.90
23783;DHT22;12071;50.850;4.446;2023-06-10T13:06:44;32.90;99.90
23783;DHT22;12071;50.850;4.446;2023-06-10T13:09:09;33.00;99.90
23783;DHT22;12071;50.850;4.446;2023-06-10T13:11:36;33.40;99.90
23783;DHT22;12071;50.850;4.446;2023-06-10T13:14:02;33.20;99.90
23783;DHT22;12071;50.850;4.446;2023-06-10T13:16:30;32.70;99.90
23783;DHT22;12071;50.850;4.446;2023-06-10T13:18:56;32.60;99.90
23783;DHT22;12071;50.850;4.446;2023-06-10T13:21:21;32.70;99.90
23783;DHT22;12071;50.850;4.446;2023-06-10T13:23:47;32.90;99.90
23783;DHT22;12071;50.850;4.446;2023-06-10T13:26:14;33.30;99.90
23783;DHT22;12071;50.850;4.446;2023-06-10T13:28:42;33.70;99.90
23783;DHT22;12071;50.850;4.446;2023-06-10T13:31:07;34.20;99.90
23783;DHT22;12071;50.850;4.446;2023-06-10T13:33:33;35.10;99.90
23783;DHT22;12071;50.850;4.446;2023-06-10T13:35:59;35.50;99.90
23783;DHT22;12071;50.850;4.446;2023-06-10T13:38:24;36.70;99.90
23783;DHT22;12071;50.850;4.446;2023-06-10T13:40:50;37.70;99.90
23783;DHT22;12071;50.850;4.446;2023-06-10T13:43:16;38.30;99.90
23783;DHT22;12071;50.850;4.446;2023-06-10T13:45:42;38.20;99.90
23783;DHT22;12071;50.850;4.446;2023-06-10T13:48:07;37.60;99.90
23783;DHT22;12071;50.850;4.446;2023-06-10T13:50:33;37.50;99.90
23783;DHT22;12071;50.850;4.446;2023-06-10T13:52:59;37.80;99.90
23783;DHT22;12071;50.850;4.446;2023-06-10T13:55:24;38.70;99.90
23783;DHT22;12071;50.850;4.446;2023-06-10T13:57:50;39.70;99.90
23783;DHT22;12071;50.850;4.446;2023-06-10T14:00:17;40.50;99.90
23783;DHT22;12071;50.850;4.446;2023-06-10T14:02:42;41.80;99.90
23783;DHT22;12071;50.850;4.446;2023-06-10T14:05:08;41.80;99.90
23783;DHT22;12071;50.850;4.446;2023-06-10T14:07:34;42.00;99.90
23783;DHT22;12071;50.850;4.446;2023-06-10T14:10:00;42.40;99.90
23783;DHT22;12071;50.850;4.446;2023-06-10T14:12:26;42.60;99.90
23783;DHT22;12071;50.850;4.446;2023-06-10T14:14:51;41.50;99.90
23783;DHT22;12071;50.850;4.446;2023-06-10T14:17:17;40.40;99.90
23783;DHT22;12071;50.850;4.446;2023-06-10T14:19:42;40.10;99.90
23783;DHT22;12071;50.850;4.446;2023-06-10T14:22:08;40.10;99.90
23783;DHT22;12071;50.850;4.446;2023-06-10T14:24:34;40.00;99.90
23783;DHT22;12071;50.850;4.446;2023-06-10T14:27:01;40.30;99.90
23783;DHT22;12071;50.850;4.446;2023-06-10T14:29:27;40.50;99.90
23783;DHT22;12071;50.850;4.446;2023-06-10T14:31:54;40.80;99.90
23783;DHT22;12071;50.850;4.446;2023-06-10T14:34:20;41.50;99.90
23783;DHT22;12071;50.850;4.446;2023-06-10T14:36:46;42.00;99.90
23783;DHT22;12071;50.850;4.446;2023-06-10T14:39:11;42.20;99.90
23783;DHT22;12071;50.850;4.446;2023-06-10T14:41:37;42.50;99.90
23783;DHT22;12071;50.850;4.446;2023-06-10T14:44:02;42.40;99.90
23783;DHT22;12071;50.850;4.446;2023-06-10T14:46:28;42.60;99.90
23783;DHT22;12071;50.850;4.446;2023-06-10T14:48:54;42.70;99.90
23783;DHT22;12071;50.850;4.446;2023-06-10T14:51:19;43.00;99.90
23783;DHT22;12071;50.850;4.446;2023-06-10T14:53:46;43.70;99.90
23783;DHT22;12071;50.850;4.446;2023-06-10T14:56:12;44.40;99.90
23783;DHT22;12071;50.850;4.446;2023-06-10T14:58:38;43.50;99.90
23783;DHT22;12071;50.850;4.446;2023-06-10T15:01:03;43.30;99.90
23783;DHT22;12071;50.850;4.446;2023-06-10T15:03:29;43.70;99.90
23783;DHT22;12071;50.850;4.446;2023-06-10T15:05:55;44.90;99.90
23783;DHT22;12071;50.850;4.446;2023-06-10T15:08:20;44.80;99.90
23783;DHT22;12071;50.850;4.446;2023-06-10T15:10:46;43.50;99.90
23783;DHT22;12071;50.850;4.446;2023-06-10T15:13:13;43.60;99.90
23783;DHT22;12071;50.850;4.446;2023-06-10T15:15:39;43.80;99.90
23783;DHT22;12071;50.850;4.446;2023-06-10T15:18:04;43.50;99.90
23783;DHT22;12071;50.850;4.446;2023-06-10T15:20:30;43.60;99.90
23783;DHT22;12071;50.850;4.446;2023-06-10T15:22:56;43.50;99.90
23783;DHT22;12071;50.850;4.446;2023-06-10T15:25:22;43.20;99.90
23783;DHT22;12071;50.850;4.446;2023-06-10T15:27:47;43.20;99.90
23783;DHT22;12071;50.850;4.446;2023-06-10T15:30:16;43.70;99.90
23783;DHT22;12071;50.850;4.446;2023-06-10T15:32:42;43.10;99.90
23783;DHT22;12071;50.850;4.446;2023-06-10T15:35:08;43.10;99.90
23783;DHT22;12071;50.850;4.446;2023-06-10T15:37:35;43.20;99.90
23783;DHT22;12071;50.850;4.446;2023-06-10T15:40:01;42.50;99.90
23783;DHT22;12071;50.850;4.446;2023-06-10T15:42:26;42.70;99.90
23783;DHT22;12071;50.850;4.446;2023-06-10T15:44:52;42.50;99.90
23783;DHT22;12071;50.850;4.446;2023-06-10T15:47:19;42.40;99.90
23783;DHT22;12071;50.850;4.446;2023-06-10T15:49:45;42.90;99.90
23783;DHT22;12071;50.850;4.446;2023-06-10T15:52:10;43.40;99.90